sensor_id;sensor_type;location;lat;lon;timestamp;P1;durP1;ratioP1;P2;durP2;ratioP2
5483;SDS011;2764;48.794;8.326;2023-08-06T00:00:38;8.50;;;7.13;;
5483;SDS011;2764;48.794;8.326;2023-08-06T00:01:40;13.80;;;7.40;;
5483;SDS011;2764;48.794;8.326;2023-08-06T00:02:41;14.10;;;7.60;;
5483;SDS011;2764;48.794;8.326;2023-08-06T00:03:43;11.87;;;8.23;;
5483;SDS011;2764;48.794;8.326;2023-08-06T00:04:45;11.77;;;7.57;;
5483;SDS011;2764;48.794;8.326;2023-08-06T00:05:46;7.57;;;6.83;;
5483;SDS011;2764;48.794;8.326;2023-08-06T00:06:48;10.80;;;6.90;;
5483;SDS011;2764;48.794;8.326;2023-08-06T00:07:50;7.57;;;6.80;;
5483;SDS011;2764;48.794;8.326;2023-08-06T00:08:52;8.33;;;6.83;;
5483;SDS011;2764;48.794;8.326;2023-08-06T00:09:53;9.10;;;7.00;;
5483;SDS011;2764;48.794;8.326;2023-08-06T00:10:55;16.10;;;7.07;;
5483;SDS011;2764;48.794;8.326;2023-08-06T00:11:57;6.30;;;5.80;;
5483;SDS011;2764;48.794;8.326;2023-08-06T00:12:58;10.53;;;6.80;;
5483;SDS011;2764;48.794;8.326;2023-08-06T00:14:00;6.90;;;6.27;;
5483;SDS011;2764;48.794;8.326;2023-08-06T00:15:02;9.20;;;6.43;;
5483;SDS011;2764;48.794;8.326;2023-08-06T00:16:13;8.70;;;6.10;;
5483;SDS011;2764;48.794;8.326;2023-08-06T00:17:15;8.87;;;5.83;;
5483;SDS011;2764;48.794;8.326;2023-08-06T00:18:16;7.33;;;5.50;;
5483;SDS011;2764;48.794;8.326;2023-08-06T00:19:18;9.53;;;6.07;;
5483;SDS011;2764;48.794;8.326;2023-08-06T00:20:20;6.30;;;5.77;;
5483;SDS011;2764;48.794;8.326;2023-08-06T00:21:22;5.90;;;5.50;;
5483;SDS011;2764;48.794;8.326;2023-08-06T00:22:23;5.60;;;5.20;;
5483;SDS011;2764;48.794;8.326;2023-08-06T00:23:25;7.53;;;5.13;;
5483;SDS011;2764;48.794;8.326;2023-08-06T00:24:27;10.07;;;5.80;;
5483;SDS011;2764;48.794;8.326;2023-08-06T00:25:29;6.00;;;5.03;;
5483;SDS011;2764;48.794;8.326;2023-08-06T00:26:31;5.37;;;4.87;;
5483;SDS011;2764;48.794;8.326;2023-08-06T00:27:32;5.73;;;5.20;;
5483;SDS011;2764;48.794;8.326;2023-08-06T00:28:34;9.73;;;5.10;;
5483;SDS011;2764;48.794;8.326;2023-08-06T00:29:36;7.90;;;6.10;;
5483;SDS011;2764;48.794;8.326;2023-08-06T00:30:37;5.77;;;5.23;;
5483;SDS011;2764;48.794;8.326;2023-08-06T00:31:39;5.83;;;5.33;;
5483;SDS011;2764;48.794;8.326;2023-08-06T00:32:40;5.63;;;4.90;;
5483;SDS011;2764;48.794;8.326;2023-08-06T00:33:42;8.63;;;4.93;;
5483;SDS011;2764;48.794;8.326;2023-08-06T00:34:45;5.13;;;4.73;;
5483;SDS011;2764;48.794;8.326;2023-08-06T00:35:46;6.60;;;4.67;;
5483;SDS011;2764;48.794;8.326;2023-08-06T00:36:48;4.30;;;4.00;;
5483;SDS011;2764;48.794;8.326;2023-08-06T00:37:50;6.53;;;4.60;;
5483;SDS011;2764;48.794;8.326;2023-08-06T00:38:51;9.00;;;3.93;;
5483;SDS011;2764;48.794;8.326;2023-08-06T00:39:53;6.17;;;4.20;;
5483;SDS011;2764;48.794;8.326;2023-08-06T00:40:55;5.90;;;4.40;;
5483;SDS011;2764;48.794;8.326;2023-08-06T00:41:56;9.60;;;4.40;;
5483;SDS011;2764;48.794;8.326;2023-08-06T00:42:59;4.17;;;3.93;;
5483;SDS011;2764;48.794;8.326;2023-08-06T00:44:01;5.37;;;4.87;;
5483;SDS011;2764;48.794;8.326;2023-08-06T00:45:03;8.43;;;4.47;;
5483;SDS011;2764;48.794;8.326;2023-08-06T00:46:05;4.07;;;3.70;;
5483;SDS011;2764;48.794;8.326;2023-08-06T00:47:07;4.23;;;3.50;;
5483;SDS011;2764;48.794;8.326;2023-08-06T00:48:09;4.00;;;3.80;;
5483;SDS011;2764;48.794;8.326;2023-08-06T00:49:10;6.67;;;4.43;;
5483;SDS011;2764;48.794;8.326;2023-08-06T00:50:12;5.83;;;4.80;;
5483;SDS011;2764;48.794;8.326;2023-08-06T00:51:14;11.20;;;4.10;;
5483;SDS011;2764;48.794;8.326;2023-08-06T00:52:15;4.93;;;4.53;;
5483;SDS011;2764;48.794;8.326;2023-08-06T00:53:18;13.43;;;4.90;;
5483;SDS011;2764;48.794;8.326;2023-08-06T00:54:19;6.30;;;3.90;;
5483;SDS011;2764;48.794;8.326;2023-08-06T00:55:21;4.50;;;4.10;;
5483;SDS011;2764;48.794;8.326;2023-08-06T00:56:23;8.23;;;4.07;;
5483;SDS011;2764;48.794;8.326;2023-08-06T00:57:25;5.17;;;4.70;;
5483;SDS011;2764;48.794;8.326;2023-08-06T00:58:27;7.07;;;4.77;;
5483;SDS011;2764;48.794;8.326;2023-08-06T00:59:29;3.90;;;3.60;;
5483;SDS011;2764;48.794;8.326;2023-08-06T01:00:32;4.57;;;4.37;;
5483;SDS011;2764;48.794;8.326;2023-08-06T01:01:34;4.30;;;4.00;;
5483;SDS011;2764;48.794;8.326;2023-08-06T01:02:36;5.50;;;4.90;;
5483;SDS011;2764;48.794;8.326;2023-08-06T01:03:37;4.27;;;4.00;;
5483;SDS011;2764;48.794;8.326;2023-08-06T01:04:39;5.80;;;3.90;;
5483;SDS011;2764;48.794;8.326;2023-08-06T01:05:41;4.57;;;4.17;;
5483;SDS011;2764;48.794;8.326;2023-08-06T01:08:58;5.20;;;4.40;;
5483;SDS011;2764;48.794;8.326;2023-08-06T01:11:26;4.27;;;3.73;;
5483;SDS011;2764;48.794;8.326;2023-08-06T01:13:36;7.73;;;3.70;;
5483;SDS011;2764;48.794;8.326;2023-08-06T01:14:47;9.43;;;4.23;;
5483;SDS011;2764;48.794;8.326;2023-08-06T01:15:54;5.70;;;4.13;;
5483;SDS011;2764;48.794;8.326;2023-08-06T01:16:58;5.97;;;3.90;;
5483;SDS011;2764;48.794;8.326;2023-08-06T01:18:00;3.77;;;3.47;;
5483;SDS011;2764;48.794;8.326;2023-08-06T01:19:02;6.20;;;3.40;;
5483;SDS011;2764;48.794;8.326;2023-08-06T01:20:04;11.77;;;3.60;;
5483;SDS011;2764;48.794;8.326;2023-08-06T01:21:05;8.47;;;3.70;;
5483;SDS011;2764;48.794;8.326;2023-08-06T01:22:07;3.03;;;2.83;;
5483;SDS011;2764;48.794;8.326;2023-08-06T01:23:09;4.57;;;3.80;;
5483;SDS011;2764;48.794;8.326;2023-08-06T01:24:11;3.57;;;3.40;;
5483;SDS011;2764;48.794;8.326;2023-08-06T01:25:13;3.63;;;3.33;;
5483;SDS011;2764;48.794;8.326;2023-08-06T01:26:19;3.63;;;2.50;;
5483;SDS011;2764;48.794;8.326;2023-08-06T01:29:49;3.40;;;3.20;;
5483;SDS011;2764;48.794;8.326;2023-08-06T01:30:54;5.10;;;3.70;;
5483;SDS011;2764;48.794;8.326;2023-08-06T01:31:56;6.30;;;3.33;;
5483;SDS011;2764;48.794;8.326;2023-08-06T01:33:00;3.40;;;2.87;;
5483;SDS011;2764;48.794;8.326;2023-08-06T01:34:02;2.97;;;2.77;;
5483;SDS011;2764;48.794;8.326;2023-08-06T01:35:04;2.80;;;2.60;;
5483;SDS011;2764;48.794;8.326;2023-08-06T01:36:06;4.00;;;3.13;;
5483;SDS011;2764;48.794;8.326;2023-08-06T01:37:07;3.70;;;2.90;;
5483;SDS011;2764;48.794;8.326;2023-08-06T01:38:09;9.37;;;2.73;;
5483;SDS011;2764;48.794;8.326;2023-08-06T01:39:11;6.17;;;3.43;;
5483;SDS011;2764;48.794;8.326;2023-08-06T01:40:13;3.50;;;3.20;;
5483;SDS011;2764;48.794;8.326;2023-08-06T01:41:18;9.33;;;2.93;;
5483;SDS011;2764;48.794;8.326;2023-08-06T01:42:19;4.57;;;2.87;;
5483;SDS011;2764;48.794;8.326;2023-08-06T01:43:22;4.00;;;3.00;;
5483;SDS011;2764;48.794;8.326;2023-08-06T01:44:24;5.03;;;2.90;;
5483;SDS011;2764;48.794;8.326;2023-08-06T01:45:25;2.40;;;2.20;;
5483;SDS011;2764;48.794;8.326;2023-08-06T01:46:27;3.73;;;2.83;;
5483;SDS011;2764;48.794;8.326;2023-08-06T01:47:29;4.07;;;2.43;;
5483;SDS011;2764;48.794;8.326;2023-08-06T01:48:30;3.73;;;2.77;;
5483;SDS011;2764;48.794;8.326;2023-08-06T01:49:32;6.67;;;2.80;;
5483;SDS011;2764;48.794;8.326;2023-08-06T01:50:33;2.60;;;2.47;;
5483;SDS011;2764;48.794;8.326;2023-08-06T01:51:35;8.33;;;3.10;;
5483;SDS011;2764;48.794;8.326;2023-08-06T01:52:36;3.70;;;2.50;;
5483;SDS011;2764;48.794;8.326;2023-08-06T01:53:38;5.13;;;2.40;;
5483;SDS011;2764;48.794;8.326;2023-08-06T01:54:39;3.27;;;2.50;;
5483;SDS011;2764;48.794;8.326;2023-08-06T01:55:41;5.87;;;2.43;;
5483;SDS011;2764;48.794;8.326;2023-08-06T01:56:43;3.40;;;3.07;;
5483;SDS011;2764;48.794;8.326;2023-08-06T01:57:45;6.13;;;2.93;;
5483;SDS011;2764;48.794;8.326;2023-08-06T01:58:47;2.97;;;2.63;;
5483;SDS011;2764;48.794;8.326;2023-08-06T01:59:48;2.93;;;2.73;;
5483;SDS011;2764;48.794;8.326;2023-08-06T02:00:50;2.73;;;2.53;;
5483;SDS011;2764;48.794;8.326;2023-08-06T02:01:52;6.50;;;2.70;;
5483;SDS011;2764;48.794;8.326;2023-08-06T02:02:54;2.80;;;2.60;;
5483;SDS011;2764;48.794;8.326;2023-08-06T02:03:55;3.67;;;2.37;;
5483;SDS011;2764;48.794;8.326;2023-08-06T02:04:57;6.67;;;2.60;;
5483;SDS011;2764;48.794;8.326;2023-08-06T02:05:59;2.60;;;2.00;;
5483;SDS011;2764;48.794;8.326;2023-08-06T02:07:01;2.80;;;2.10;;
5483;SDS011;2764;48.794;8.326;2023-08-06T02:08:03;6.60;;;2.50;;
5483;SDS011;2764;48.794;8.326;2023-08-06T02:09:04;1.87;;;1.77;;
5483;SDS011;2764;48.794;8.326;2023-08-06T02:10:06;3.03;;;2.40;;
5483;SDS011;2764;48.794;8.326;2023-08-06T02:11:08;7.07;;;2.73;;
5483;SDS011;2764;48.794;8.326;2023-08-06T02:12:10;5.67;;;2.60;;
5483;SDS011;2764;48.794;8.326;2023-08-06T02:13:11;6.33;;;2.37;;
5483;SDS011;2764;48.794;8.326;2023-08-06T02:14:13;6.37;;;2.63;;
5483;SDS011;2764;48.794;8.326;2023-08-06T02:15:14;3.43;;;2.23;;
5483;SDS011;2764;48.794;8.326;2023-08-06T02:16:16;4.90;;;2.33;;
5483;SDS011;2764;48.794;8.326;2023-08-06T02:17:18;4.30;;;1.93;;
5483;SDS011;2764;48.794;8.326;2023-08-06T02:18:19;2.77;;;2.43;;
5483;SDS011;2764;48.794;8.326;2023-08-06T02:19:21;7.33;;;2.10;;
5483;SDS011;2764;48.794;8.326;2023-08-06T02:20:22;5.83;;;2.50;;
5483;SDS011;2764;48.794;8.326;2023-08-06T02:21:24;4.83;;;2.03;;
5483;SDS011;2764;48.794;8.326;2023-08-06T02:22:26;2.97;;;1.87;;
5483;SDS011;2764;48.794;8.326;2023-08-06T02:23:28;6.50;;;2.07;;
5483;SDS011;2764;48.794;8.326;2023-08-06T02:24:30;2.57;;;2.00;;
5483;SDS011;2764;48.794;8.326;2023-08-06T02:25:31;4.83;;;2.23;;
5483;SDS011;2764;48.794;8.326;2023-08-06T02:26:33;2.80;;;2.30;;
5483;SDS011;2764;48.794;8.326;2023-08-06T02:27:34;5.00;;;2.60;;
5483;SDS011;2764;48.794;8.326;2023-08-06T02:28:36;6.60;;;2.63;;
5483;SDS011;2764;48.794;8.326;2023-08-06T02:29:39;3.90;;;2.40;;
5483;SDS011;2764;48.794;8.326;2023-08-06T02:30:49;5.93;;;2.50;;
5483;SDS011;2764;48.794;8.326;2023-08-06T02:31:51;5.20;;;3.10;;
5483;SDS011;2764;48.794;8.326;2023-08-06T02:32:53;7.30;;;2.90;;
5483;SDS011;2764;48.794;8.326;2023-08-06T02:33:54;8.00;;;2.87;;
5483;SDS011;2764;48.794;8.326;2023-08-06T02:34:56;5.40;;;2.50;;
5483;SDS011;2764;48.794;8.326;2023-08-06T02:36:01;3.23;;;2.60;;
5483;SDS011;2764;48.794;8.326;2023-08-06T02:37:05;5.87;;;2.70;;
5483;SDS011;2764;48.794;8.326;2023-08-06T02:38:06;3.00;;;2.33;;
5483;SDS011;2764;48.794;8.326;2023-08-06T02:39:08;3.30;;;2.60;;
5483;SDS011;2764;48.794;8.326;2023-08-06T02:40:09;3.67;;;2.60;;
5483;SDS011;2764;48.794;8.326;2023-08-06T02:41:11;2.90;;;2.33;;
5483;SDS011;2764;48.794;8.326;2023-08-06T02:42:13;4.50;;;2.67;;
5483;SDS011;2764;48.794;8.326;2023-08-06T02:43:15;3.40;;;2.17;;
5483;SDS011;2764;48.794;8.326;2023-08-06T02:44:16;3.53;;;2.17;;
5483;SDS011;2764;48.794;8.326;2023-08-06T02:45:18;5.70;;;2.30;;
5483;SDS011;2764;48.794;8.326;2023-08-06T02:46:20;5.10;;;2.30;;
5483;SDS011;2764;48.794;8.326;2023-08-06T02:47:21;2.10;;;1.83;;
5483;SDS011;2764;48.794;8.326;2023-08-06T02:48:23;10.40;;;2.60;;
5483;SDS011;2764;48.794;8.326;2023-08-06T02:49:24;6.83;;;2.10;;
5483;SDS011;2764;48.794;8.326;2023-08-06T02:50:26;2.50;;;2.30;;
5483;SDS011;2764;48.794;8.326;2023-08-06T02:51:28;2.23;;;1.80;;
5483;SDS011;2764;48.794;8.326;2023-08-06T02:52:29;6.30;;;2.50;;
5483;SDS011;2764;48.794;8.326;2023-08-06T02:53:31;3.70;;;1.80;;
5483;SDS011;2764;48.794;8.326;2023-08-06T02:54:33;4.10;;;2.73;;
5483;SDS011;2764;48.794;8.326;2023-08-06T02:55:35;4.70;;;2.90;;
5483;SDS011;2764;48.794;8.326;2023-08-06T02:56:36;4.70;;;2.53;;
5483;SDS011;2764;48.794;8.326;2023-08-06T02:57:38;4.10;;;2.50;;
5483;SDS011;2764;48.794;8.326;2023-08-06T02:58:43;6.20;;;2.10;;
5483;SDS011;2764;48.794;8.326;2023-08-06T02:59:45;5.80;;;2.17;;
5483;SDS011;2764;48.794;8.326;2023-08-06T03:00:58;2.50;;;2.30;;
5483;SDS011;2764;48.794;8.326;2023-08-06T03:02:00;5.83;;;2.50;;
5483;SDS011;2764;48.794;8.326;2023-08-06T03:03:01;3.47;;;2.10;;
5483;SDS011;2764;48.794;8.326;2023-08-06T03:04:03;6.10;;;2.10;;
5483;SDS011;2764;48.794;8.326;2023-08-06T03:05:05;3.50;;;2.17;;
5483;SDS011;2764;48.794;8.326;2023-08-06T03:06:07;4.17;;;2.30;;
5483;SDS011;2764;48.794;8.326;2023-08-06T03:07:09;3.03;;;2.20;;
5483;SDS011;2764;48.794;8.326;2023-08-06T03:08:10;3.57;;;2.40;;
5483;SDS011;2764;48.794;8.326;2023-08-06T03:09:12;4.77;;;2.00;;
5483;SDS011;2764;48.794;8.326;2023-08-06T03:10:14;4.30;;;2.03;;
5483;SDS011;2764;48.794;8.326;2023-08-06T03:11:16;4.43;;;2.13;;
5483;SDS011;2764;48.794;8.326;2023-08-06T03:12:18;3.53;;;1.67;;
5483;SDS011;2764;48.794;8.326;2023-08-06T03:13:19;6.07;;;2.00;;
5483;SDS011;2764;48.794;8.326;2023-08-06T03:14:21;4.10;;;2.40;;
5483;SDS011;2764;48.794;8.326;2023-08-06T03:15:23;1.73;;;1.60;;
5483;SDS011;2764;48.794;8.326;2023-08-06T03:16:24;8.90;;;2.00;;
5483;SDS011;2764;48.794;8.326;2023-08-06T03:17:26;4.57;;;1.87;;
5483;SDS011;2764;48.794;8.326;2023-08-06T03:18:28;2.93;;;1.90;;
5483;SDS011;2764;48.794;8.326;2023-08-06T03:19:30;2.10;;;1.40;;
5483;SDS011;2764;48.794;8.326;2023-08-06T03:20:32;1.63;;;1.53;;
5483;SDS011;2764;48.794;8.326;2023-08-06T03:21:33;4.20;;;2.17;;
5483;SDS011;2764;48.794;8.326;2023-08-06T03:22:35;2.50;;;2.00;;
5483;SDS011;2764;48.794;8.326;2023-08-06T03:23:36;6.40;;;1.87;;
5483;SDS011;2764;48.794;8.326;2023-08-06T03:24:38;1.43;;;1.30;;
5483;SDS011;2764;48.794;8.326;2023-08-06T03:25:40;3.23;;;1.83;;
5483;SDS011;2764;48.794;8.326;2023-08-06T03:26:41;2.93;;;1.53;;
5483;SDS011;2764;48.794;8.326;2023-08-06T03:27:43;2.70;;;2.03;;
5483;SDS011;2764;48.794;8.326;2023-08-06T03:28:45;2.17;;;1.77;;
5483;SDS011;2764;48.794;8.326;2023-08-06T03:29:50;1.97;;;1.83;;
5483;SDS011;2764;48.794;8.326;2023-08-06T03:31:04;1.93;;;1.83;;
5483;SDS011;2764;48.794;8.326;2023-08-06T03:32:06;3.23;;;1.47;;
5483;SDS011;2764;48.794;8.326;2023-08-06T03:33:08;1.60;;;1.50;;
5483;SDS011;2764;48.794;8.326;2023-08-06T03:34:09;4.63;;;1.87;;
5483;SDS011;2764;48.794;8.326;2023-08-06T03:35:10;3.30;;;2.00;;
5483;SDS011;2764;48.794;8.326;2023-08-06T03:36:12;7.07;;;1.97;;
5483;SDS011;2764;48.794;8.326;2023-08-06T03:37:14;4.83;;;2.07;;
5483;SDS011;2764;48.794;8.326;2023-08-06T03:38:15;4.07;;;1.93;;
5483;SDS011;2764;48.794;8.326;2023-08-06T03:39:17;5.03;;;2.50;;
5483;SDS011;2764;48.794;8.326;2023-08-06T03:40:18;10.43;;;1.90;;
5483;SDS011;2764;48.794;8.326;2023-08-06T03:41:20;3.23;;;2.03;;
5483;SDS011;2764;48.794;8.326;2023-08-06T03:42:21;3.37;;;1.83;;
5483;SDS011;2764;48.794;8.326;2023-08-06T03:43:23;4.50;;;2.50;;
5483;SDS011;2764;48.794;8.326;2023-08-06T03:44:25;5.63;;;2.00;;
5483;SDS011;2764;48.794;8.326;2023-08-06T03:45:28;4.37;;;2.03;;
5483;SDS011;2764;48.794;8.326;2023-08-06T03:46:30;2.50;;;1.70;;
5483;SDS011;2764;48.794;8.326;2023-08-06T03:47:35;3.20;;;2.10;;
5483;SDS011;2764;48.794;8.326;2023-08-06T03:48:37;6.47;;;2.00;;
5483;SDS011;2764;48.794;8.326;2023-08-06T03:49:39;2.43;;;1.50;;
5483;SDS011;2764;48.794;8.326;2023-08-06T03:50:41;2.90;;;1.53;;
5483;SDS011;2764;48.794;8.326;2023-08-06T03:51:42;4.40;;;2.30;;
5483;SDS011;2764;48.794;8.326;2023-08-06T03:52:44;2.60;;;1.90;;
5483;SDS011;2764;48.794;8.326;2023-08-06T03:53:46;5.40;;;1.30;;
5483;SDS011;2764;48.794;8.326;2023-08-06T03:54:47;4.00;;;2.00;;
5483;SDS011;2764;48.794;8.326;2023-08-06T03:55:49;3.70;;;2.03;;
5483;SDS011;2764;48.794;8.326;2023-08-06T03:56:52;6.13;;;1.80;;
5483;SDS011;2764;48.794;8.326;2023-08-06T03:57:53;5.67;;;2.10;;
5483;SDS011;2764;48.794;8.326;2023-08-06T03:58:55;7.07;;;1.90;;
5483;SDS011;2764;48.794;8.326;2023-08-06T03:59:57;1.87;;;1.30;;
5483;SDS011;2764;48.794;8.326;2023-08-06T04:01:00;1.47;;;1.33;;
5483;SDS011;2764;48.794;8.326;2023-08-06T04:02:02;4.47;;;1.47;;
5483;SDS011;2764;48.794;8.326;2023-08-06T04:03:04;3.97;;;1.10;;
5483;SDS011;2764;48.794;8.326;2023-08-06T04:04:05;2.83;;;1.90;;
5483;SDS011;2764;48.794;8.326;2023-08-06T04:05:07;4.00;;;1.27;;
5483;SDS011;2764;48.794;8.326;2023-08-06T04:06:09;3.83;;;1.60;;
5483;SDS011;2764;48.794;8.326;2023-08-06T04:07:10;3.50;;;1.47;;
5483;SDS011;2764;48.794;8.326;2023-08-06T04:08:12;2.57;;;1.40;;
5483;SDS011;2764;48.794;8.326;2023-08-06T04:09:13;3.17;;;1.10;;
5483;SDS011;2764;48.794;8.326;2023-08-06T04:10:15;1.60;;;1.50;;
5483;SDS011;2764;48.794;8.326;2023-08-06T04:11:17;4.40;;;1.20;;
5483;SDS011;2764;48.794;8.326;2023-08-06T04:12:19;1.63;;;1.33;;
5483;SDS011;2764;48.794;8.326;2023-08-06T04:13:23;2.90;;;1.20;;
5483;SDS011;2764;48.794;8.326;2023-08-06T04:14:26;2.10;;;1.10;;
5483;SDS011;2764;48.794;8.326;2023-08-06T04:15:27;3.60;;;1.30;;
5483;SDS011;2764;48.794;8.326;2023-08-06T04:16:29;2.50;;;1.27;;
5483;SDS011;2764;48.794;8.326;2023-08-06T04:17:31;8.90;;;1.60;;
5483;SDS011;2764;48.794;8.326;2023-08-06T04:18:32;3.37;;;1.43;;
5483;SDS011;2764;48.794;8.326;2023-08-06T04:19:34;1.37;;;1.10;;
5483;SDS011;2764;48.794;8.326;2023-08-06T04:20:42;5.50;;;1.50;;
5483;SDS011;2764;48.794;8.326;2023-08-06T04:21:43;1.73;;;1.10;;
5483;SDS011;2764;48.794;8.326;2023-08-06T04:22:45;1.10;;;1.10;;
5483;SDS011;2764;48.794;8.326;2023-08-06T04:23:47;2.93;;;1.43;;
5483;SDS011;2764;48.794;8.326;2023-08-06T04:24:49;1.03;;;1.03;;
5483;SDS011;2764;48.794;8.326;2023-08-06T04:25:50;3.33;;;1.60;;
5483;SDS011;2764;48.794;8.326;2023-08-06T04:26:52;4.53;;;1.43;;
5483;SDS011;2764;48.794;8.326;2023-08-06T04:27:54;1.97;;;1.20;;
5483;SDS011;2764;48.794;8.326;2023-08-06T04:28:55;5.17;;;1.13;;
5483;SDS011;2764;48.794;8.326;2023-08-06T04:29:57;1.37;;;1.07;;
5483;SDS011;2764;48.794;8.326;2023-08-06T04:30:59;3.53;;;1.60;;
5483;SDS011;2764;48.794;8.326;2023-08-06T04:32:00;1.10;;;0.90;;
5483;SDS011;2764;48.794;8.326;2023-08-06T04:33:02;2.73;;;1.37;;
5483;SDS011;2764;48.794;8.326;2023-08-06T04:34:04;13.80;;;1.40;;
5483;SDS011;2764;48.794;8.326;2023-08-06T04:35:05;1.90;;;1.30;;
5483;SDS011;2764;48.794;8.326;2023-08-06T04:36:07;1.90;;;1.00;;
5483;SDS011;2764;48.794;8.326;2023-08-06T04:37:09;2.60;;;1.13;;
5483;SDS011;2764;48.794;8.326;2023-08-06T04:38:11;1.63;;;1.30;;
5483;SDS011;2764;48.794;8.326;2023-08-06T04:39:12;3.13;;;1.50;;
5483;SDS011;2764;48.794;8.326;2023-08-06T04:40:14;5.23;;;1.30;;
5483;SDS011;2764;48.794;8.326;2023-08-06T04:41:16;4.70;;;1.33;;
5483;SDS011;2764;48.794;8.326;2023-08-06T04:42:18;3.73;;;1.77;;
5483;SDS011;2764;48.794;8.326;2023-08-06T04:43:19;2.20;;;1.20;;
5483;SDS011;2764;48.794;8.326;2023-08-06T04:44:21;2.63;;;1.30;;
5483;SDS011;2764;48.794;8.326;2023-08-06T04:45:22;5.10;;;1.50;;
5483;SDS011;2764;48.794;8.326;2023-08-06T04:46:26;3.90;;;1.20;;
5483;SDS011;2764;48.794;8.326;2023-08-06T04:47:27;7.30;;;1.83;;
5483;SDS011;2764;48.794;8.326;2023-08-06T04:48:29;5.50;;;1.33;;
5483;SDS011;2764;48.794;8.326;2023-08-06T04:49:30;8.73;;;1.30;;
5483;SDS011;2764;48.794;8.326;2023-08-06T04:50:32;2.40;;;1.20;;
5483;SDS011;2764;48.794;8.326;2023-08-06T04:51:34;2.40;;;1.40;;
5483;SDS011;2764;48.794;8.326;2023-08-06T04:52:35;2.17;;;1.30;;
5483;SDS011;2764;48.794;8.326;2023-08-06T04:53:37;2.30;;;1.53;;
5483;SDS011;2764;48.794;8.326;2023-08-06T04:54:39;3.20;;;1.50;;
5483;SDS011;2764;48.794;8.326;2023-08-06T04:55:41;6.20;;;1.10;;
5483;SDS011;2764;48.794;8.326;2023-08-06T04:56:42;2.07;;;1.23;;
5483;SDS011;2764;48.794;8.326;2023-08-06T04:57:44;1.40;;;1.23;;
5483;SDS011;2764;48.794;8.326;2023-08-06T04:58:47;2.13;;;0.80;;
5483;SDS011;2764;48.794;8.326;2023-08-06T04:59:48;1.03;;;0.93;;
5483;SDS011;2764;48.794;8.326;2023-08-06T05:00:50;1.63;;;1.20;;
5483;SDS011;2764;48.794;8.326;2023-08-06T05:01:52;8.63;;;2.03;;
5483;SDS011;2764;48.794;8.326;2023-08-06T05:02:54;4.00;;;1.27;;
5483;SDS011;2764;48.794;8.326;2023-08-06T05:03:56;3.33;;;1.07;;
5483;SDS011;2764;48.794;8.326;2023-08-06T05:04:58;2.00;;;1.27;;
5483;SDS011;2764;48.794;8.326;2023-08-06T05:06:00;3.70;;;0.80;;
5483;SDS011;2764;48.794;8.326;2023-08-06T05:07:01;1.10;;;0.73;;
5483;SDS011;2764;48.794;8.326;2023-08-06T05:08:03;1.53;;;1.03;;
5483;SDS011;2764;48.794;8.326;2023-08-06T05:09:04;2.63;;;1.17;;
5483;SDS011;2764;48.794;8.326;2023-08-06T05:10:07;3.07;;;1.10;;
5483;SDS011;2764;48.794;8.326;2023-08-06T05:11:09;0.80;;;0.80;;
5483;SDS011;2764;48.794;8.326;2023-08-06T05:12:11;2.20;;;0.80;;
5483;SDS011;2764;48.794;8.326;2023-08-06T05:13:13;3.67;;;0.90;;
5483;SDS011;2764;48.794;8.326;2023-08-06T05:14:14;5.40;;;0.90;;
5483;SDS011;2764;48.794;8.326;2023-08-06T05:15:16;8.93;;;0.97;;
5483;SDS011;2764;48.794;8.326;2023-08-06T05:16:18;0.80;;;0.67;;
5483;SDS011;2764;48.794;8.326;2023-08-06T05:17:19;1.23;;;0.80;;
5483;SDS011;2764;48.794;8.326;2023-08-06T05:18:21;2.23;;;1.17;;
5483;SDS011;2764;48.794;8.326;2023-08-06T05:19:23;2.03;;;0.93;;
5483;SDS011;2764;48.794;8.326;2023-08-06T05:20:24;2.10;;;1.63;;
5483;SDS011;2764;48.794;8.326;2023-08-06T05:21:26;3.43;;;1.17;;
5483;SDS011;2764;48.794;8.326;2023-08-06T05:22:27;3.50;;;0.83;;
5483;SDS011;2764;48.794;8.326;2023-08-06T05:23:29;1.17;;;0.90;;
5483;SDS011;2764;48.794;8.326;2023-08-06T05:24:30;3.63;;;0.90;;
5483;SDS011;2764;48.794;8.326;2023-08-06T05:25:34;1.67;;;0.80;;
5483;SDS011;2764;48.794;8.326;2023-08-06T05:26:35;1.47;;;0.70;;
5483;SDS011;2764;48.794;8.326;2023-08-06T05:27:37;1.30;;;0.63;;
5483;SDS011;2764;48.794;8.326;2023-08-06T05:28:39;1.17;;;0.60;;
5483;SDS011;2764;48.794;8.326;2023-08-06T05:29:42;1.90;;;0.90;;
5483;SDS011;2764;48.794;8.326;2023-08-06T05:30:45;2.40;;;0.73;;
5483;SDS011;2764;48.794;8.326;2023-08-06T05:31:46;1.30;;;0.90;;
5483;SDS011;2764;48.794;8.326;2023-08-06T05:32:48;0.50;;;0.50;;
5483;SDS011;2764;48.794;8.326;2023-08-06T05:33:50;0.90;;;0.70;;
5483;SDS011;2764;48.794;8.326;2023-08-06T05:34:52;1.47;;;0.80;;
5483;SDS011;2764;48.794;8.326;2023-08-06T05:35:54;1.37;;;0.73;;
5483;SDS011;2764;48.794;8.326;2023-08-06T05:36:55;1.37;;;0.80;;
5483;SDS011;2764;48.794;8.326;2023-08-06T05:37:57;2.43;;;0.70;;
5483;SDS011;2764;48.794;8.326;2023-08-06T05:38:58;4.67;;;0.80;;
5483;SDS011;2764;48.794;8.326;2023-08-06T05:40:00;2.20;;;0.77;;
5483;SDS011;2764;48.794;8.326;2023-08-06T05:41:02;1.03;;;0.50;;
5483;SDS011;2764;48.794;8.326;2023-08-06T05:42:05;3.70;;;0.60;;
5483;SDS011;2764;48.794;8.326;2023-08-06T05:43:06;4.30;;;0.70;;
5483;SDS011;2764;48.794;8.326;2023-08-06T05:44:08;2.53;;;0.70;;
5483;SDS011;2764;48.794;8.326;2023-08-06T05:45:09;0.50;;;0.47;;
5483;SDS011;2764;48.794;8.326;2023-08-06T05:46:11;0.67;;;0.67;;
5483;SDS011;2764;48.794;8.326;2023-08-06T05:47:13;1.80;;;0.60;;
5483;SDS011;2764;48.794;8.326;2023-08-06T05:48:15;2.23;;;0.67;;
5483;SDS011;2764;48.794;8.326;2023-08-06T05:49:16;0.53;;;0.50;;
5483;SDS011;2764;48.794;8.326;2023-08-06T05:50:18;1.40;;;0.50;;
5483;SDS011;2764;48.794;8.326;2023-08-06T05:51:19;1.10;;;0.60;;
5483;SDS011;2764;48.794;8.326;2023-08-06T05:52:21;1.43;;;0.50;;
5483;SDS011;2764;48.794;8.326;2023-08-06T05:53:23;1.23;;;0.63;;
5483;SDS011;2764;48.794;8.326;2023-08-06T05:54:25;1.77;;;0.50;;
5483;SDS011;2764;48.794;8.326;2023-08-06T05:55:27;2.30;;;0.60;;
5483;SDS011;2764;48.794;8.326;2023-08-06T05:56:28;1.33;;;0.43;;
5483;SDS011;2764;48.794;8.326;2023-08-06T05:57:30;1.23;;;0.40;;
5483;SDS011;2764;48.794;8.326;2023-08-06T05:58:32;0.83;;;0.50;;
5483;SDS011;2764;48.794;8.326;2023-08-06T05:59:34;1.53;;;0.40;;
5483;SDS011;2764;48.794;8.326;2023-08-06T06:00:36;0.60;;;0.60;;
5483;SDS011;2764;48.794;8.326;2023-08-06T06:01:37;2.40;;;0.50;;
5483;SDS011;2764;48.794;8.326;2023-08-06T06:02:39;0.50;;;0.43;;
5483;SDS011;2764;48.794;8.326;2023-08-06T06:03:41;1.10;;;0.50;;
5483;SDS011;2764;48.794;8.326;2023-08-06T06:04:43;1.17;;;0.40;;
5483;SDS011;2764;48.794;8.326;2023-08-06T06:05:44;1.73;;;0.80;;
5483;SDS011;2764;48.794;8.326;2023-08-06T06:06:46;2.63;;;0.60;;
5483;SDS011;2764;48.794;8.326;2023-08-06T06:07:47;1.73;;;0.70;;
5483;SDS011;2764;48.794;8.326;2023-08-06T06:08:49;2.43;;;0.87;;
5483;SDS011;2764;48.794;8.326;2023-08-06T06:09:51;0.60;;;0.60;;
5483;SDS011;2764;48.794;8.326;2023-08-06T06:10:53;3.60;;;0.60;;
5483;SDS011;2764;48.794;8.326;2023-08-06T06:11:54;2.20;;;0.70;;
5483;SDS011;2764;48.794;8.326;2023-08-06T06:12:57;1.50;;;0.70;;
5483;SDS011;2764;48.794;8.326;2023-08-06T06:13:58;0.60;;;0.60;;
5483;SDS011;2764;48.794;8.326;2023-08-06T06:15:00;0.77;;;0.77;;
5483;SDS011;2764;48.794;8.326;2023-08-06T06:16:02;3.03;;;0.60;;
5483;SDS011;2764;48.794;8.326;2023-08-06T06:17:04;3.97;;;0.63;;
5483;SDS011;2764;48.794;8.326;2023-08-06T06:18:05;0.60;;;0.60;;
5483;SDS011;2764;48.794;8.326;2023-08-06T06:19:07;0.60;;;0.50;;
5483;SDS011;2764;48.794;8.326;2023-08-06T06:20:09;0.60;;;0.50;;
5483;SDS011;2764;48.794;8.326;2023-08-06T06:21:10;2.20;;;0.70;;
5483;SDS011;2764;48.794;8.326;2023-08-06T06:22:12;1.23;;;0.80;;
5483;SDS011;2764;48.794;8.326;2023-08-06T06:23:14;1.47;;;0.60;;
5483;SDS011;2764;48.794;8.326;2023-08-06T06:24:16;0.60;;;0.60;;
5483;SDS011;2764;48.794;8.326;2023-08-06T06:25:17;0.80;;;0.50;;
5483;SDS011;2764;48.794;8.326;2023-08-06T06:26:19;1.67;;;0.60;;
5483;SDS011;2764;48.794;8.326;2023-08-06T06:27:20;1.33;;;0.50;;
5483;SDS011;2764;48.794;8.326;2023-08-06T06:28:22;0.93;;;0.40;;
5483;SDS011;2764;48.794;8.326;2023-08-06T06:29:23;0.60;;;0.50;;
5483;SDS011;2764;48.794;8.326;2023-08-06T06:30:25;1.33;;;0.43;;
5483;SDS011;2764;48.794;8.326;2023-08-06T06:31:27;0.80;;;0.60;;
5483;SDS011;2764;48.794;8.326;2023-08-06T06:32:29;1.93;;;0.70;;